Time;durP1;ratioP1;P1;durP2;ratioP2;P2;SDS_P1;SDS_P2;PMS_P1;PMS_P2;Temp;Humidity;BMP_temperature;BMP_pressure;BME280_temperature;BME280_humidity;BME280_pressure;Samples;Min_cycle;Max_cycle;Signal;HPM_P1;HPM_P2
2021/07/17 00:02:17;;;;;;;22.98;7.85;;;17.80;99.80;;;;;;5026021;28;20079;-67
2021/07/17 00:04:44;;;;;;;23.77;8.65;;;17.80;99.80;;;;;;5021088;28;20026;-67
2021/07/17 00:07:10;;;;;;;23.50;8.10;;;17.80;99.70;;;;;;5033181;28;20030;-67
2021/07/17 00:09:36;;;;;;;24.17;8.40;;;17.80;99.80;;;;;;5027248;28;20029;-67
2021/07/17 00:12:03;;;;;;;20.75;7.95;;;17.80;99.80;;;;;;5031581;28;20029;-67
2021/07/17 00:14:28;;;;;;;24.75;8.70;;;17.80;99.80;;;;;;5020360;28;20026;-67
2021/07/17 00:16:54;;;;;;;30.52;8.80;;;17.80;99.90;;;;;;5029745;28;20041;-67
2021/07/17 00:19:19;;;;;;;24.33;7.65;;;17.80;99.90;;;;;;5027450;28;20034;-67
2021/07/17 00:21:45;;;;;;;24.67;8.40;;;17.80;99.90;;;;;;5022312;28;20025;-67
2021/07/17 00:24:11;;;;;;;21.55;7.63;;;17.80;99.90;;;;;;5026045;28;20120;-67
2021/07/17 00:26:37;;;;;;;20.25;8.30;;;17.80;99.90;;;;;;5020099;28;20025;-67
2021/07/17 00:29:02;;;;;;;26.08;8.35;;;17.80;99.90;;;;;;5031156;28;20386;-67
2021/07/17 00:31:28;;;;;;;18.80;7.75;;;17.70;99.90;;;;;;5027302;28;20172;-67
2021/07/17 00:33:54;;;;;;;23.10;8.35;;;17.70;99.90;;;;;;5031747;28;20030;-67
2021/07/17 00:36:20;;;;;;;16.02;8.05;;;17.70;99.90;;;;;;5017855;28;20040;-67
2021/07/17 00:38:45;;;;;;;18.98;8.38;;;17.70;99.90;;;;;;5027877;28;20037;-67
2021/07/17 00:41:11;;;;;;;21.40;8.45;;;17.80;99.90;;;;;;5018173;28;20025;-67
2021/07/17 00:43:36;;;;;;;28.10;8.80;;;17.70;99.90;;;;;;5026751;28;20480;-67
2021/07/17 00:46:02;;;;;;;22.10;8.50;;;17.70;99.90;;;;;;5030983;28;20379;-67
2021/07/17 00:48:28;;;;;;;24.08;8.45;;;17.70;99.90;;;;;;5029589;28;20028;-67
2021/07/17 00:50:53;;;;;;;24.80;8.60;;;17.70;99.90;;;;;;5030640;28;20083;-67
2021/07/17 00:53:19;;;;;;;21.48;8.05;;;17.70;99.90;;;;;;5030703;28;20034;-67
2021/07/17 00:55:49;;;;;;;18.95;8.35;;;17.70;99.90;;;;;;5023789;28;20121;-67
2021/07/17 00:58:25;;;;;;;25.25;8.05;;;17.70;99.90;;;;;;5033078;28;20029;-67
2021/07/17 01:00:52;;;;;;;21.02;8.73;;;17.70;99.90;;;;;;5023670;28;20253;-67
2021/07/17 01:03:21;;;;;;;18.55;8.55;;;17.70;99.90;;;;;;5022520;28;20357;-67
2021/07/17 01:05:47;;;;;;;27.17;8.32;;;17.70;99.90;;;;;;5029351;28;20026;-67
2021/07/17 01:08:14;;;;;;;20.58;7.95;;;17.70;99.90;;;;;;5033039;28;20057;-67
2021/07/17 01:10:39;;;;;;;21.33;9.07;;;17.70;99.90;;;;;;5029817;28;20056;-67
2021/07/17 01:13:05;;;;;;;20.58;8.68;;;17.70;99.90;;;;;;5024204;28;20518;-67
2021/07/17 01:15:31;;;;;;;22.65;9.00;;;17.60;99.90;;;;;;5031821;28;20029;-67
2021/07/17 01:17:57;;;;;;;26.02;9.23;;;17.60;99.90;;;;;;5024349;28;20092;-67
2021/07/17 01:20:23;;;;;;;23.15;8.32;;;17.60;99.90;;;;;;5025878;28;20026;-67
2021/07/17 01:22:50;;;;;;;18.75;7.82;;;17.60;99.90;;;;;;5027563;28;20030;-67
2021/07/17 01:25:20;;;;;;;21.77;8.15;;;17.60;99.90;;;;;;5024935;28;20084;-67
2021/07/17 01:27:46;;;;;;;21.08;9.57;;;17.50;99.90;;;;;;5022429;28;20117;-67
2021/07/17 01:30:20;;;;;;;24.50;9.77;;;17.50;99.90;;;;;;5026503;28;20056;-67
2021/07/17 01:32:46;;;;;;;27.13;9.18;;;17.50;99.90;;;;;;5018959;28;20518;-67
2021/07/17 01:35:12;;;;;;;32.78;9.50;;;17.50;99.90;;;;;;5027846;28;20061;-67
2021/07/17 01:37:39;;;;;;;24.48;9.52;;;17.50;99.90;;;;;;5028396;28;20472;-67
2021/07/17 01:40:06;;;;;;;28.00;9.07;;;17.40;99.90;;;;;;5022009;28;20048;-67
2021/07/17 01:42:35;;;;;;;23.38;9.02;;;17.40;99.90;;;;;;5031445;28;20423;-67
2021/07/17 01:45:03;;;;;;;23.77;8.70;;;17.40;99.90;;;;;;5025027;28;20480;-67
2021/07/17 01:47:28;;;;;;;22.88;9.02;;;17.40;99.90;;;;;;5020545;28;20033;-67
2021/07/17 01:49:54;;;;;;;27.15;9.93;;;17.40;99.90;;;;;;5028491;28;20424;-67
2021/07/17 01:52:19;;;;;;;23.33;8.88;;;17.40;99.90;;;;;;5023034;28;20037;-67
2021/07/17 01:54:45;;;;;;;22.80;8.98;;;17.40;99.90;;;;;;5019285;28;20037;-67
2021/07/17 01:57:10;;;;;;;22.25;8.25;;;17.30;99.90;;;;;;5025131;28;20048;-67
2021/07/17 01:59:38;;;;;;;28.65;8.88;;;17.30;99.90;;;;;;5028773;28;20022;-67
2021/07/17 02:02:05;;;;;;;20.88;8.95;;;17.30;99.90;;;;;;5019103;28;20033;-67
2021/07/17 02:04:30;;;;;;;25.10;8.60;;;17.30;99.90;;;;;;5030488;28;20029;-67
2021/07/17 02:06:56;;;;;;;19.70;9.05;;;17.20;99.90;;;;;;5026384;28;20105;-67
2021/07/17 02:09:21;;;;;;;21.13;7.55;;;17.20;99.90;;;;;;5030150;28;20036;-69
2021/07/17 02:11:47;;;;;;;23.88;9.48;;;17.10;99.90;;;;;;5028485;28;20502;-67
2021/07/17 02:14:12;;;;;;;21.55;8.60;;;17.10;99.90;;;;;;5028503;28;20042;-67
2021/07/17 02:16:39;;;;;;;23.35;9.52;;;17.00;99.90;;;;;;5030389;28;20029;-67
2021/07/17 02:19:16;;;;;;;27.73;8.18;;;16.90;99.90;;;;;;5031486;28;20397;-67
2021/07/17 02:21:41;;;;;;;27.98;8.20;;;16.90;99.90;;;;;;5023623;28;20116;-67
2021/07/17 02:24:07;;;;;;;23.00;8.02;;;16.80;99.90;;;;;;5026672;28;20037;-67
2021/07/17 02:26:32;;;;;;;20.25;8.63;;;16.80;99.90;;;;;;5028359;28;20040;-67
2021/07/17 02:28:58;;;;;;;22.17;8.02;;;16.80;99.90;;;;;;5031618;28;20087;-67
2021/07/17 02:31:23;;;;;;;26.05;9.88;;;16.80;99.90;;;;;;5027536;28;20037;-67
2021/07/17 02:33:49;;;;;;;23.60;9.32;;;16.80;99.90;;;;;;5014437;28;20477;-67
2021/07/17 02:36:16;;;;;;;24.15;10.05;;;16.80;99.90;;;;;;5023963;28;20032;-67
2021/07/17 02:38:42;;;;;;;26.30;9.82;;;16.80;99.90;;;;;;5026640;28;20029;-67
2021/07/17 02:41:07;;;;;;;23.42;8.98;;;16.80;99.90;;;;;;5023127;28;20077;-67
2021/07/17 02:43:33;;;;;;;22.13;8.52;;;16.80;99.90;;;;;;5025269;28;20029;-67
2021/07/17 02:45:58;;;;;;;23.90;8.35;;;16.80;99.90;;;;;;5018611;28;20029;-66
2021/07/17 02:48:24;;;;;;;20.25;8.50;;;16.90;99.90;;;;;;5029156;28;20459;-67
2021/07/17 02:50:49;;;;;;;16.48;8.15;;;16.80;99.90;;;;;;5028101;28;20025;-67
2021/07/17 02:53:15;;;;;;;20.08;9.43;;;16.80;99.90;;;;;;5024497;28;20029;-67
2021/07/17 02:55:40;;;;;;;20.13;8.73;;;16.80;99.90;;;;;;5024640;28;20040;-67
2021/07/17 02:58:06;;;;;;;23.65;9.48;;;16.80;99.90;;;;;;5028268;28;20107;-67
2021/07/17 03:00:35;;;;;;;23.20;8.05;;;16.90;99.90;;;;;;5030063;28;20386;-67
2021/07/17 03:03:02;;;;;;;24.58;9.57;;;16.80;99.90;;;;;;5020671;28;20037;-67
2021/07/17 03:05:27;;;;;;;28.77;9.35;;;16.80;99.90;;;;;;5031026;28;20025;-67
2021/07/17 03:07:53;;;;;;;23.73;8.68;;;16.80;99.90;;;;;;5027046;28;20029;-67
2021/07/17 03:10:18;;;;;;;23.73;8.60;;;16.80;99.90;;;;;;5028765;28;20034;-67
2021/07/17 03:12:44;;;;;;;30.33;8.85;;;16.80;99.90;;;;;;5026915;28;20034;-67
2021/07/17 03:15:10;;;;;;;29.45;9.85;;;16.80;99.90;;;;;;5017734;28;20065;-67
2021/07/17 03:17:36;;;;;;;27.15;9.93;;;16.80;99.90;;;;;;5024268;28;20499;-67
2021/07/17 03:20:02;;;;;;;24.35;8.45;;;16.80;99.90;;;;;;5028916;28;20029;-67
2021/07/17 03:22:28;;;;;;;24.98;9.05;;;16.80;99.90;;;;;;5020167;28;20029;-67
2021/07/17 03:24:53;;;;;;;31.13;10.00;;;16.80;99.90;;;;;;5024252;28;20072;-67
2021/07/17 03:27:19;;;;;;;30.27;9.48;;;16.70;99.90;;;;;;5021254;28;20392;-67
2021/07/17 03:29:45;;;;;;;26.40;9.88;;;16.70;99.90;;;;;;5029532;28;20025;-67
2021/07/17 03:32:11;;;;;;;27.10;9.27;;;16.70;99.90;;;;;;5021946;28;20463;-67
2021/07/17 03:34:37;;;;;;;26.67;9.32;;;16.70;99.90;;;;;;5028841;28;20025;-67
2021/07/17 03:37:03;;;;;;;28.30;10.38;;;16.70;99.90;;;;;;5025464;28;20069;-66
2021/07/17 03:39:28;;;;;;;23.45;8.77;;;16.60;99.90;;;;;;5026347;28;20080;-67
2021/07/17 03:41:54;;;;;;;36.25;11.70;;;16.60;99.90;;;;;;5019511;28;20450;-67
2021/07/17 03:44:23;;;;;;;28.65;10.18;;;16.60;99.90;;;;;;5027681;28;20554;-67
2021/07/17 03:46:49;;;;;;;25.17;10.02;;;16.60;99.90;;;;;;5028139;28;20029;-67
2021/07/17 03:49:15;;;;;;;26.65;11.13;;;16.50;99.90;;;;;;5021486;28;20384;-67
2021/07/17 03:51:40;;;;;;;35.60;10.75;;;16.50;99.90;;;;;;5025554;28;20033;-67
2021/07/17 03:54:06;;;;;;;32.55;10.30;;;16.50;99.90;;;;;;5030304;28;20037;-67
2021/07/17 03:56:32;;;;;;;30.40;10.15;;;16.50;99.90;;;;;;5026065;28;20026;-67
2021/07/17 03:58:57;;;;;;;32.47;11.25;;;16.50;99.90;;;;;;5020464;28;20025;-67
2021/07/17 04:01:23;;;;;;;27.38;10.23;;;16.40;99.90;;;;;;5025120;28;20408;-67
2021/07/17 04:03:50;;;;;;;28.27;9.77;;;16.40;99.90;;;;;;5026606;28;20399;-67
2021/07/17 04:06:16;;;;;;;25.48;10.07;;;16.40;99.90;;;;;;5019404;28;20057;-67
2021/07/17 04:08:41;;;;;;;28.60;9.57;;;16.40;99.90;;;;;;5030323;28;20026;-67
2021/07/17 04:11:07;;;;;;;29.02;10.55;;;16.30;99.90;;;;;;5028728;28;20036;-67
2021/07/17 04:13:33;;;;;;;28.05;10.88;;;16.30;99.90;;;;;;5024876;28;20479;-67
2021/07/17 04:16:00;;;;;;;25.90;9.38;;;16.30;99.90;;;;;;5026161;28;20043;-67
2021/07/17 04:18:26;;;;;;;37.67;9.80;;;16.30;99.90;;;;;;5026649;28;20056;-68
2021/07/17 04:20:51;;;;;;;25.15;9.77;;;16.30;99.90;;;;;;5028342;28;20022;-68
2021/07/17 04:23:17;;;;;;;28.75;9.20;;;16.30;99.90;;;;;;5024450;28;20029;-67
2021/07/17 04:25:42;;;;;;;29.27;10.48;;;16.20;99.90;;;;;;5025472;28;20117;-67
2021/07/17 04:28:08;;;;;;;33.40;10.05;;;16.20;99.90;;;;;;5022605;28;20183;-67
2021/07/17 04:30:33;;;;;;;28.20;9.63;;;16.20;99.90;;;;;;5014385;28;20045;-67
2021/07/17 04:32:59;;;;;;;25.92;9.00;;;16.10;99.90;;;;;;5022460;28;20446;-67
2021/07/17 04:35:25;;;;;;;23.38;8.82;;;16.10;99.90;;;;;;5022181;28;20026;-67
2021/07/17 04:37:54;;;;;;;28.33;8.82;;;16.10;99.90;;;;;;5021867;28;20491;-67
2021/07/17 04:40:19;;;;;;;30.33;9.25;;;16.10;99.90;;;;;;5033245;28;20026;-67
2021/07/17 04:42:45;;;;;;;22.38;8.18;;;16.10;99.90;;;;;;5024511;28;20018;-68
2021/07/17 04:45:11;;;;;;;32.92;9.18;;;16.20;99.90;;;;;;5018719;28;20040;-67
2021/07/17 04:47:36;;;;;;;32.53;9.18;;;16.30;99.90;;;;;;5025178;28;20072;-68
2021/07/17 04:50:03;;;;;;;32.75;9.23;;;16.40;99.90;;;;;;5031734;28;20033;-68
2021/07/17 04:52:30;;;;;;;31.50;10.23;;;16.40;99.90;;;;;;5027669;28;20037;-67
2021/07/17 04:54:55;;;;;;;31.13;9.75;;;16.50;99.90;;;;;;5028168;28;20379;-68
2021/07/17 04:57:21;;;;;;;29.60;9.52;;;16.60;99.90;;;;;;5031008;28;20121;-68
2021/07/17 04:59:47;;;;;;;27.83;10.02;;;16.60;99.90;;;;;;5030214;28;20033;-67
2021/07/17 05:02:12;;;;;;;27.02;9.98;;;16.60;99.90;;;;;;5022247;28;20018;-68
2021/07/17 05:04:38;;;;;;;30.48;9.40;;;16.70;99.90;;;;;;5024546;28;20384;-68
2021/07/17 05:07:03;;;;;;;23.63;10.00;;;16.80;99.90;;;;;;5029239;28;20030;-67
2021/07/17 05:09:30;;;;;;;25.30;9.43;;;16.90;99.90;;;;;;5026701;28;20029;-68
2021/07/17 05:11:55;;;;;;;26.45;9.77;;;17.00;99.90;;;;;;5024954;28;20041;-68
2021/07/17 05:14:21;;;;;;;28.67;10.13;;;17.10;99.90;;;;;;5030938;28;20045;-68
2021/07/17 05:16:46;;;;;;;25.00;9.52;;;17.20;99.90;;;;;;5028867;28;20484;-68
2021/07/17 05:19:13;;;;;;;29.55;9.80;;;17.20;99.90;;;;;;5028336;28;20045;-69
2021/07/17 05:21:39;;;;;;;30.88;11.85;;;17.20;99.90;;;;;;5027794;28;20105;-69
2021/07/17 05:24:05;;;;;;;23.90;9.60;;;17.20;99.90;;;;;;5028715;28;20124;-69
2021/07/17 05:26:31;;;;;;;27.17;10.25;;;17.30;99.90;;;;;;5031285;28;20022;-69
2021/07/17 05:28:57;;;;;;;33.60;11.07;;;17.30;99.90;;;;;;5030328;28;20500;-69
2021/07/17 05:31:22;;;;;;;26.80;11.00;;;17.40;99.90;;;;;;5030501;28;20029;-69
2021/07/17 05:33:48;;;;;;;25.27;9.85;;;17.40;99.90;;;;;;5032096;28;20041;-69
2021/07/17 05:36:13;;;;;;;28.85;10.23;;;17.40;99.90;;;;;;5031781;28;20033;-69
2021/07/17 05:38:39;;;;;;;25.00;10.48;;;17.30;99.90;;;;;;5032115;28;20026;-69
2021/07/17 05:41:04;;;;;;;25.50;10.38;;;17.40;99.90;;;;;;5029634;28;20029;-69
2021/07/17 05:43:30;;;;;;;24.25;10.27;;;17.40;99.90;;;;;;5032242;28;20036;-69
2021/07/17 05:45:55;;;;;;;25.33;10.57;;;17.40;99.90;;;;;;5028036;28;20048;-69
2021/07/17 05:48:22;;;;;;;22.50;9.98;;;17.50;99.90;;;;;;5027062;28;20491;-69
2021/07/17 05:50:48;;;;;;;22.02;10.48;;;17.50;99.90;;;;;;5029462;28;20111;-69
2021/07/17 05:53:14;;;;;;;26.27;10.32;;;17.50;99.90;;;;;;5032081;28;20028;-69
2021/07/17 05:55:40;;;;;;;25.88;10.45;;;17.60;99.90;;;;;;5031706;28;20087;-69
2021/07/17 05:58:06;;;;;;;22.63;9.13;;;17.70;99.90;;;;;;5028464;28;20029;-69
2021/07/17 06:00:31;;;;;;;24.52;9.65;;;17.70;99.90;;;;;;5029063;28;20029;-69
2021/07/17 06:02:57;;;;;;;26.23;9.27;;;17.80;99.90;;;;;;5029458;28;20041;-69
2021/07/17 06:05:22;;;;;;;23.00;9.18;;;17.80;99.90;;;;;;5029823;28;20403;-68
2021/07/17 06:07:48;;;;;;;25.10;10.52;;;17.80;99.90;;;;;;5032040;28;20092;-69
2021/07/17 06:10:13;;;;;;;20.10;8.40;;;17.90;99.90;;;;;;5032097;28;20026;-66
2021/07/17 06:12:39;;;;;;;24.15;8.48;;;18.00;99.90;;;;;;5027794;28;20042;-67
2021/07/17 06:15:06;;;;;;;19.55;7.93;;;18.00;99.90;;;;;;5029473;28;20038;-67
2021/07/17 06:17:31;;;;;;;22.92;8.93;;;18.20;99.90;;;;;;5027345;28;20048;-67
2021/07/17 06:19:57;;;;;;;26.05;8.95;;;18.30;99.90;;;;;;5024961;28;20017;-68
2021/07/17 06:22:22;;;;;;;21.20;6.35;;;18.50;99.90;;;;;;5023636;28;20032;-68
2021/07/17 06:24:48;;;;;;;22.90;7.18;;;18.60;99.90;;;;;;5023071;28;20033;-67
2021/07/17 06:27:14;;;;;;;19.30;6.57;;;18.80;99.90;;;;;;5026864;28;20038;-67
2021/07/17 06:29:39;;;;;;;20.98;7.18;;;18.80;99.90;;;;;;5023879;28;20052;-67
2021/07/17 06:32:06;;;;;;;17.27;6.32;;;18.80;99.90;;;;;;5024663;28;20034;-67
2021/07/17 06:34:32;;;;;;;20.38;6.78;;;18.80;99.90;;;;;;5027333;28;20083;-67
2021/07/17 06:36:57;;;;;;;14.57;6.05;;;19.00;99.90;;;;;;5024914;28;20022;-67
2021/07/17 06:39:23;;;;;;;19.25;6.63;;;19.10;99.90;;;;;;5023029;28;20076;-67
2021/07/17 06:41:49;;;;;;;20.73;7.32;;;19.40;99.90;;;;;;5021009;28;20483;-68
2021/07/17 06:44:14;;;;;;;11.95;4.63;;;19.60;99.90;;;;;;5024116;28;20061;-67
2021/07/17 06:46:40;;;;;;;14.65;5.00;;;19.70;99.50;;;;;;5030642;28;20086;-68
2021/07/17 06:49:05;;;;;;;10.35;4.88;;;19.70;99.10;;;;;;5023639;28;20491;-68
2021/07/17 06:51:32;;;;;;;16.38;5.75;;;19.60;99.10;;;;;;5021544;28;20381;-68
2021/07/17 06:53:58;;;;;;;18.08;6.18;;;19.50;99.10;;;;;;5024146;28;20030;-68
2021/07/17 06:56:23;;;;;;;14.65;5.80;;;19.50;99.00;;;;;;5026228;28;20029;-68
2021/07/17 06:58:50;;;;;;;14.07;5.60;;;19.50;99.00;;;;;;5027378;28;20041;-68
2021/07/17 07:01:16;;;;;;;14.98;5.90;;;19.50;98.90;;;;;;5021223;28;20028;-67
2021/07/17 07:03:41;;;;;;;12.65;5.07;;;19.40;98.70;;;;;;5022822;28;20017;-67
2021/07/17 07:06:07;;;;;;;15.77;5.47;;;19.40;99.00;;;;;;5023807;28;20044;-67
2021/07/17 07:08:33;;;;;;;14.27;5.35;;;19.40;99.00;;;;;;5020325;28;20033;-67
2021/07/17 07:10:58;;;;;;;13.00;5.47;;;19.50;99.10;;;;;;5020671;28;20034;-67
2021/07/17 07:13:24;;;;;;;15.35;6.65;;;19.60;98.80;;;;;;5024203;28;20038;-68
2021/07/17 07:15:50;;;;;;;17.33;6.32;;;19.70;98.60;;;;;;5019431;28;20060;-68
2021/07/17 07:18:15;;;;;;;18.42;5.82;;;19.80;98.40;;;;;;5027955;28;20044;-67
2021/07/17 07:20:42;;;;;;;15.57;5.85;;;19.80;98.30;;;;;;5022951;28;20030;-67
2021/07/17 07:23:07;;;;;;;21.58;5.45;;;19.70;98.20;;;;;;5028174;28;20028;-67
2021/07/17 07:25:33;;;;;;;11.75;5.10;;;19.80;98.30;;;;;;5026081;28;20030;-67
2021/07/17 07:27:59;;;;;;;11.93;5.45;;;20.00;98.40;;;;;;5026031;28;20041;-67
2021/07/17 07:30:24;;;;;;;14.93;4.70;;;20.20;98.20;;;;;;5023016;28;20028;-67
2021/07/17 07:32:51;;;;;;;16.80;5.35;;;20.30;97.90;;;;;;5026470;28;20037;-68
2021/07/17 07:35:18;;;;;;;14.90;4.90;;;20.20;97.50;;;;;;5018883;28;20593;-68
2021/07/17 07:37:44;;;;;;;18.80;5.88;;;20.30;97.70;;;;;;5025734;28;20018;-68
2021/07/17 07:40:11;;;;;;;15.63;4.50;;;20.30;97.60;;;;;;5025371;28;20021;-69
2021/07/17 07:42:37;;;;;;;11.48;4.47;;;20.30;97.70;;;;;;5022850;28;20026;-69
2021/07/17 07:45:03;;;;;;;15.77;4.47;;;20.30;97.60;;;;;;5029874;28;20040;-69
2021/07/17 07:47:29;;;;;;;15.68;4.85;;;20.40;97.60;;;;;;5021810;28;20025;-67
2021/07/17 07:49:56;;;;;;;14.45;4.88;;;20.50;97.50;;;;;;5020497;28;20037;-66
2021/07/17 07:52:22;;;;;;;10.55;4.63;;;20.60;97.20;;;;;;5020488;28;20034;-68
2021/07/17 07:54:47;;;;;;;14.80;4.40;;;20.60;97.20;;;;;;5022129;28;20037;-68
2021/07/17 07:57:13;;;;;;;20.08;4.53;;;20.60;96.90;;;;;;5025138;28;20039;-68
2021/07/17 07:59:38;;;;;;;11.93;3.72;;;20.60;97.20;;;;;;5030463;28;20056;-67
2021/07/17 08:02:04;;;;;;;12.85;4.40;;;20.70;97.10;;;;;;5024048;28;20047;-67
2021/07/17 08:04:30;;;;;;;12.10;4.35;;;20.70;96.90;;;;;;5027377;28;20032;-67
2021/07/17 08:06:56;;;;;;;12.95;4.13;;;20.90;96.80;;;;;;5022802;28;20048;-67
2021/07/17 08:09:21;;;;;;;9.98;4.00;;;21.00;96.60;;;;;;5027930;28;20021;-67
2021/07/17 08:11:47;;;;;;;9.25;3.65;;;21.20;96.40;;;;;;5023633;28;20061;-67
2021/07/17 08:14:13;;;;;;;8.65;3.22;;;21.30;96.20;;;;;;5031034;28;20037;-68
2021/07/17 08:16:38;;;;;;;9.43;3.03;;;21.40;96.20;;;;;;5023712;28;20088;-68
2021/07/17 08:19:04;;;;;;;13.07;3.53;;;21.50;95.30;;;;;;5030508;28;20045;-67
2021/07/17 08:21:29;;;;;;;9.18;4.00;;;21.50;95.60;;;;;;5022160;28;20060;-67
2021/07/17 08:23:55;;;;;;;10.60;2.75;;;21.60;95.50;;;;;;5025382;28;20038;-67
2021/07/17 08:26:20;;;;;;;9.27;3.03;;;21.80;95.60;;;;;;5027239;28;20034;-69
2021/07/17 08:28:46;;;;;;;13.02;3.40;;;21.90;95.10;;;;;;5033563;28;20094;-68
2021/07/17 08:31:11;;;;;;;8.27;2.33;;;22.00;94.90;;;;;;5025933;28;20026;-67
2021/07/17 08:33:37;;;;;;;11.38;3.28;;;22.10;94.80;;;;;;5031743;28;20021;-67
2021/07/17 08:36:03;;;;;;;8.93;2.45;;;22.10;94.20;;;;;;5026926;28;20444;-67
2021/07/17 08:38:28;;;;;;;11.35;2.97;;;22.10;93.80;;;;;;5029452;28;20490;-66
2021/07/17 08:40:56;;;;;;;10.15;3.00;;;22.10;93.70;;;;;;5030652;28;20376;-68
2021/07/17 08:43:22;;;;;;;6.45;2.42;;;22.10;93.80;;;;;;5025002;28;20053;-67
2021/07/17 08:45:49;;;;;;;8.15;2.40;;;22.20;93.90;;;;;;5031953;28;20034;-67
2021/07/17 08:48:16;;;;;;;7.15;2.22;;;22.30;93.80;;;;;;5023252;28;20033;-68
2021/07/17 08:50:42;;;;;;;13.30;2.30;;;22.40;93.50;;;;;;5029728;28;20029;-68
2021/07/17 08:53:08;;;;;;;6.28;1.98;;;22.40;93.10;;;;;;5027031;28;20387;-68
2021/07/17 08:55:34;;;;;;;5.07;2.10;;;22.50;93.10;;;;;;5026012;28;20025;-68
2021/07/17 08:58:01;;;;;;;11.80;2.53;;;22.50;92.70;;;;;;5030791;28;20369;-68
2021/07/17 09:00:32;;;;;;;7.38;2.22;;;22.50;92.70;;;;;;5028141;28;20067;-67
2021/07/17 09:03:06;;;;;;;6.00;1.73;;;22.50;92.40;;;;;;5027893;28;20072;-67
2021/07/17 09:05:35;;;;;;;12.90;2.33;;;22.50;92.20;;;;;;5030933;28;20117;-68
2021/07/17 09:08:02;;;;;;;7.35;1.65;;;22.50;91.70;;;;;;5020417;28;20025;-68
2021/07/17 09:10:34;;;;;;;5.85;1.20;;;22.50;92.10;;;;;;5032665;28;20025;-68
2021/07/17 09:13:15;;;;;;;5.07;1.10;;;22.70;91.50;;;;;;5029199;28;20028;-68
2021/07/17 09:15:50;;;;;;;8.15;1.63;;;22.80;91.00;;;;;;5029043;28;20073;-67
2021/07/17 09:18:27;;;;;;;3.90;0.90;;;22.90;90.40;;;;;;5026557;28;20076;-67
2021/07/17 09:21:08;;;;;;;4.20;1.10;;;23.00;90.00;;;;;;5030646;28;20472;-67
2021/07/17 09:23:40;;;;;;;4.93;1.27;;;23.00;90.50;;;;;;5029571;28;20543;-67
2021/07/17 09:26:10;;;;;;;4.88;0.85;;;23.10;90.10;;;;;;5029005;28;20072;-67
2021/07/17 09:28:35;;;;;;;4.10;0.90;;;23.20;90.10;;;;;;5023448;28;20034;-67
2021/07/17 09:31:01;;;;;;;4.68;0.88;;;23.20;89.90;;;;;;5023687;28;20196;-68
2021/07/17 09:33:28;;;;;;;3.67;0.77;;;23.30;89.70;;;;;;5026207;28;20514;-67
2021/07/17 09:35:56;;;;;;;4.55;0.80;;;23.40;88.30;;;;;;5028564;28;20030;-68
2021/07/17 09:38:23;;;;;;;6.80;0.90;;;23.40;87.40;;;;;;5022876;28;20507;-68
2021/07/17 09:40:53;;;;;;;2.78;0.55;;;23.50;86.50;;;;;;5026687;28;20387;-67
2021/07/17 09:43:29;;;;;;;7.65;1.30;;;23.50;85.00;;;;;;5020339;28;20041;-68
2021/07/17 09:45:55;;;;;;;4.00;0.60;;;23.50;84.70;;;;;;5031448;28;20026;-67
2021/07/17 09:48:20;;;;;;;4.97;0.70;;;23.70;85.90;;;;;;5031758;28;20029;-68
2021/07/17 09:50:47;;;;;;;7.13;1.13;;;23.80;83.70;;;;;;5029929;28;20428;-69
2021/07/17 09:53:12;;;;;;;2.88;0.65;;;23.90;83.70;;;;;;5026408;28;20033;-68
2021/07/17 09:55:38;;;;;;;3.30;0.70;;;24.00;83.60;;;;;;5023954;28;20025;-67
2021/07/17 09:58:10;;;;;;;3.97;1.00;;;24.00;82.30;;;;;;5022293;28;20028;-67
2021/07/17 10:00:36;;;;;;;4.68;0.98;;;24.00;81.80;;;;;;5025571;28;20017;-67
2021/07/17 10:03:14;;;;;;;4.32;0.73;;;24.00;82.20;;;;;;5024004;28;20388;-67
2021/07/17 10:05:40;;;;;;;4.97;0.60;;;24.00;82.30;;;;;;5028808;28;20057;-67
2021/07/17 10:08:12;;;;;;;3.67;1.17;;;24.20;81.60;;;;;;5024724;28;20097;-67
2021/07/17 10:10:38;;;;;;;;;;;24.20;81.10;;;;;;5022545;28;20040;-67
2021/07/17 10:13:03;;;;;;;2.85;0.73;;;24.20;80.90;;;;;;5019489;28;19911;-65
2021/07/17 10:15:32;;;;;;;3.20;0.77;;;24.20;81.10;;;;;;5026244;28;20042;-67
2021/07/17 10:18:23;;;;;;;2.38;0.60;;;24.20;80.80;;;;;;5029593;28;20132;-67
2021/07/17 10:20:53;;;;;;;5.65;0.70;;;24.30;80.70;;;;;;5030333;28;20022;-68
2021/07/17 10:23:19;;;;;;;2.05;0.70;;;24.30;80.00;;;;;;5031213;28;20033;-68
2021/07/17 10:25:45;;;;;;;2.78;0.60;;;24.30;77.70;;;;;;5032782;28;20082;-68
2021/07/17 10:28:11;;;;;;;2.30;0.50;;;24.30;78.30;;;;;;5032311;28;20496;-68
2021/07/17 10:30:38;;;;;;;5.78;0.60;;;24.40;77.50;;;;;;5032517;28;20028;-69
2021/07/17 10:33:04;;;;;;;2.33;0.57;;;24.50;76.80;;;;;;5024529;28;20034;-69
2021/07/17 10:35:30;;;;;;;2.20;0.50;;;24.50;75.40;;;;;;5026446;28;20044;-69
2021/07/17 10:37:57;;;;;;;5.15;0.50;;;24.50;75.50;;;;;;5029167;28;20404;-67
2021/07/17 10:40:23;;;;;;;3.40;0.68;;;24.60;74.20;;;;;;5030883;28;20025;-66
2021/07/17 10:42:54;;;;;;;3.95;0.57;;;24.60;74.40;;;;;;5029272;28;20052;-69
2021/07/17 10:45:36;;;;;;;3.20;0.50;;;24.60;74.70;;;;;;5022947;28;20075;-69
2021/07/17 10:48:02;;;;;;;;;;;24.80;74.50;;;;;;5028531;28;20036;-68
2021/07/17 10:50:33;;;;;;;1.80;0.40;;;24.80;74.70;;;;;;5020157;28;19913;-69
2021/07/17 10:52:58;;;;;;;2.33;0.50;;;24.80;75.10;;;;;;5028461;28;20037;-69
2021/07/17 10:55:30;;;;;;;2.65;0.40;;;24.80;76.00;;;;;;5024233;28;20388;-69
2021/07/17 10:58:00;;;;;;;2.13;0.60;;;24.90;75.60;;;;;;5031320;28;20423;-69
2021/07/17 11:00:41;;;;;;;1.67;0.40;;;24.90;75.70;;;;;;5019436;28;20030;-69
2021/07/17 11:03:18;;;;;;;1.88;0.40;;;25.10;75.50;;;;;;5022115;28;20022;-69
2021/07/17 11:05:44;;;;;;;2.65;0.52;;;25.10;74.70;;;;;;5022872;28;20029;-68
2021/07/17 11:08:30;;;;;;;1.60;0.50;;;25.10;74.70;;;;;;5017933;28;20103;-68
2021/07/17 11:10:55;;;;;;;3.88;0.40;;;25.30;74.80;;;;;;5028983;28;20041;-68
2021/07/17 11:13:33;;;;;;;2.85;0.40;;;25.40;74.00;;;;;;5025090;28;20037;-69
2021/07/17 11:15:59;;;;;;;1.67;0.40;;;25.40;73.50;;;;;;5025996;28;20022;-70
2021/07/17 11:18:29;;;;;;;1.95;0.40;;;25.50;73.80;;;;;;5029309;28;20041;-69
2021/07/17 11:20:58;;;;;;;3.10;0.40;;;25.60;71.30;;;;;;5024730;28;20025;-69
2021/07/17 11:23:33;;;;;;;8.23;1.00;;;25.60;70.80;;;;;;5018233;28;20046;-69
2021/07/17 11:26:08;;;;;;;2.58;0.40;;;25.60;71.30;;;;;;5023994;28;20109;-69
2021/07/17 11:29:00;;;;;;;1.27;0.30;;;25.60;71.00;;;;;;5021730;28;20392;-69
2021/07/17 11:31:31;;;;;;;2.72;0.40;;;25.70;71.60;;;;;;5026746;28;20040;-69
2021/07/17 11:36:39;;;;;;;1.83;0.50;;;25.90;71.70;;;;;;5022500;28;20384;-69
2021/07/17 11:39:08;;;;;;;3.58;0.57;;;26.00;70.60;;;;;;5026999;28;20030;-69
2021/07/17 11:41:34;;;;;;;2.22;0.30;;;26.00;69.50;;;;;;5026957;28;20033;-67
2021/07/17 11:43:59;;;;;;;1.38;0.30;;;26.00;70.40;;;;;;5019471;28;20104;-69
2021/07/17 11:46:25;;;;;;;2.83;0.77;;;26.10;69.90;;;;;;5023506;28;20096;-67
2021/07/17 11:49:03;;;;;;;1.63;0.40;;;26.20;69.80;;;;;;5027568;28;20037;-67
2021/07/17 11:51:30;;;;;;;2.00;0.40;;;26.30;70.80;;;;;;5029244;28;20550;-68
2021/07/17 11:53:56;;;;;;;2.85;0.40;;;26.50;70.70;;;;;;5028276;28;20076;-68
2021/07/17 11:56:22;;;;;;;3.75;0.55;;;26.50;70.80;;;;;;5027022;28;20041;-67
2021/07/17 11:58:48;;;;;;;1.67;0.40;;;26.70;69.40;;;;;;5028820;28;20094;-68
2021/07/17 12:01:14;;;;;;;2.38;0.45;;;26.70;68.80;;;;;;5029440;28;20092;-67
2021/07/17 12:03:41;;;;;;;3.25;0.40;;;26.60;68.40;;;;;;5031827;28;20045;-68
2021/07/17 12:06:07;;;;;;;1.10;0.38;;;26.50;67.40;;;;;;5026482;28;20061;-68
2021/07/17 12:08:33;;;;;;;2.38;0.60;;;26.50;68.00;;;;;;5028255;28;20097;-68
2021/07/17 12:10:58;;;;;;;1.77;0.47;;;26.60;68.40;;;;;;5028297;28;20029;-68
2021/07/17 12:13:26;;;;;;;3.72;0.43;;;26.60;69.00;;;;;;5027378;28;20034;-68
2021/07/17 12:15:52;;;;;;;1.55;0.30;;;26.60;68.70;;;;;;5027023;28;20029;-68
2021/07/17 12:18:18;;;;;;;2.22;0.40;;;26.70;69.00;;;;;;5021072;28;20057;-68
2021/07/17 12:20:46;;;;;;;2.80;0.40;;;26.80;68.00;;;;;;5028648;28;20125;-68
2021/07/17 12:23:17;;;;;;;2.80;0.40;;;26.70;68.00;;;;;;5026997;28;20105;-68
2021/07/17 12:25:55;;;;;;;3.30;0.40;;;26.70;67.70;;;;;;5029763;28;20029;-68
2021/07/17 12:28:26;;;;;;;3.05;0.30;;;26.80;67.70;;;;;;5030222;28;20376;-68
2021/07/17 12:31:00;;;;;;;2.72;0.40;;;26.90;67.90;;;;;;5025506;28;20029;-68
2021/07/17 12:33:32;;;;;;;1.67;0.47;;;27.00;67.40;;;;;;5030014;28;20125;-68
2021/07/17 12:36:09;;;;;;;2.88;0.40;;;27.00;66.30;;;;;;5021552;28;20025;-68
2021/07/17 12:38:56;;;;;;;2.67;0.47;;;27.00;67.50;;;;;;5025476;28;20030;-68
2021/07/17 12:41:24;;;;;;;15.77;1.88;;;27.10;68.10;;;;;;5030400;28;20075;-68
2021/07/17 12:43:51;;;;;;;3.65;0.50;;;27.10;66.30;;;;;;5027455;28;20044;-68